Time;durP1;ratioP1;P1;durP2;ratioP2;P2;SDS_P1;SDS_P2;PMS_P1;PMS_P2;Temp;Humidity;BMP_temperature;BMP_pressure;BME280_temperature;BME280_humidity;BME280_pressure;Samples;Min_cycle;Max_cycle;Signal;HPM_P1;HPM_P2
2022/07/31 00:01:00;;;;;;;8.75;6.68;;;;;;;15.17;85.83;96367.25;2042052;29;20052;-44
2022/07/31 00:02:01;;;;;;;8.85;7.10;;;;;;;15.15;85.96;96370.88;2041451;29;20051;-43
2022/07/31 00:03:02;;;;;;;7.25;6.47;;;;;;;15.12;85.63;96365.84;2041548;29;20048;-46
2022/07/31 00:04:03;;;;;;;8.48;6.78;;;;;;;15.08;86.17;96359.13;2026475;29;20065;-45
2022/07/31 00:05:05;;;;;;;11.38;7.50;;;;;;;15.03;86.12;96363.78;2026802;29;20064;-45
2022/07/31 00:06:07;;;;;;;8.13;6.78;;;;;;;14.97;87.17;96363.22;2041654;29;20410;-44
2022/07/31 00:07:08;;;;;;;11.55;7.60;;;;;;;14.93;86.65;96364.31;2041948;29;20056;-44
2022/07/31 00:08:09;;;;;;;8.23;7.15;;;;;;;14.93;86.82;96368.69;2049412;29;20517;-45
2022/07/31 00:09:10;;;;;;;8.65;7.15;;;;;;;14.91;87.33;96368.78;2042057;29;20055;-44
2022/07/31 00:10:12;;;;;;;8.43;7.60;;;;;;;14.83;88.03;96375.38;2047453;29;20058;-44
2022/07/31 00:11:13;;;;;;;9.50;7.32;;;;;;;14.80;88.60;96368.56;2049791;29;20119;-46
2022/07/31 00:12:14;;;;;;;7.97;7.18;;;;;;;14.80;88.56;96365.13;2048762;29;20047;-43
2022/07/31 00:13:15;;;;;;;10.43;7.25;;;;;;;14.81;87.79;96369.41;2048976;29;20051;-44
2022/07/31 00:14:17;;;;;;;8.25;6.80;;;;;;;14.82;87.94;96366.72;2049381;28;20055;-43
2022/07/31 00:15:18;;;;;;;9.40;7.30;;;;;;;14.80;88.28;96365.13;2042207;29;20056;-44
2022/07/31 00:16:19;;;;;;;8.50;6.70;;;;;;;14.78;88.05;96367.81;2041459;29;20051;-46
2022/07/31 00:17:20;;;;;;;9.13;7.22;;;;;;;14.75;87.88;96363.63;2049273;29;20051;-44
2022/07/31 00:18:22;;;;;;;9.15;7.55;;;;;;;14.74;88.27;96367.16;2041686;29;20422;-45
2022/07/31 00:19:23;;;;;;;8.90;7.30;;;;;;;14.74;88.06;96369.78;2041922;28;20588;-44
2022/07/31 00:20:24;;;;;;;9.13;6.90;;;;;;;14.74;87.87;96368.94;2057185;28;20046;-44
2022/07/31 00:21:25;;;;;;;8.23;7.40;;;;;;;14.73;88.35;96360.25;2057590;28;20045;-46
2022/07/31 00:22:26;;;;;;;9.63;7.50;;;;;;;14.69;88.14;96366.56;2048979;29;20521;-44
2022/07/31 00:23:28;;;;;;;9.93;7.15;;;;;;;14.69;88.40;96363.13;2049315;29;20051;-46
2022/07/31 00:24:29;;;;;;;8.88;6.82;;;;;;;14.66;88.30;96360.69;2057262;28;20054;-47
2022/07/31 00:25:31;;;;;;;8.73;7.15;;;;;;;14.62;88.50;96359.16;2049040;29;20047;-44
2022/07/31 00:26:32;;;;;;;8.18;7.38;;;;;;;14.63;88.04;96353.88;2049360;29;20517;-44
2022/07/31 00:27:34;;;;;;;12.65;7.15;;;;;;;14.64;87.99;96363.38;2041268;29;20062;-47
2022/07/31 00:28:36;;;;;;;10.50;7.35;;;;;;;14.64;88.39;96357.31;2057616;28;20061;-43
2022/07/31 00:29:37;;;;;;;8.35;6.82;;;;;;;14.65;88.15;96356.38;2056969;28;20050;-40
2022/07/31 00:30:38;;;;;;;9.52;7.25;;;;;;;14.69;87.78;96357.91;2049288;28;20051;-44
2022/07/31 00:31:39;;;;;;;6.70;6.00;;;;;;;14.72;87.64;96355.94;2049112;29;20058;-43
2022/07/31 00:32:41;;;;;;;7.32;6.13;;;;;;;14.71;86.69;96356.03;2040769;29;20058;-44
2022/07/31 00:33:42;;;;;;;9.93;6.57;;;;;;;14.70;86.09;96352.59;2041632;29;20055;-47
2022/07/31 00:34:43;;;;;;;7.25;6.10;;;;;;;14.72;87.26;96362.94;2049914;28;20059;-44
2022/07/31 00:35:44;;;;;;;7.22;6.07;;;;;;;14.69;87.05;96361.34;2041187;29;20566;-45
2022/07/31 00:36:45;;;;;;;8.25;7.00;;;;;;;14.67;87.13;96355.34;2041615;29;20055;-44
2022/07/31 00:37:47;;;;;;;9.10;6.70;;;;;;;14.65;87.38;96356.38;2057350;28;20094;-46
2022/07/31 00:38:48;;;;;;;9.18;6.00;;;;;;;14.61;86.83;96358.34;2048579;29;20059;-44
2022/07/31 00:39:49;;;;;;;10.20;6.72;;;;;;;14.57;87.67;96356.84;2049190;28;20089;-45
2022/07/31 00:40:50;;;;;;;8.63;6.70;;;;;;;14.54;88.07;96362.22;2050116;28;20046;-45
2022/07/31 00:41:53;;;;;;;9.07;7.28;;;;;;;14.48;88.04;96359.94;2049473;28;20058;-42
2022/07/31 00:42:55;;;;;;;7.65;6.85;;;;;;;14.41;88.18;96356.84;2033394;29;20064;-45
2022/07/31 00:43:56;;;;;;;9.43;7.00;;;;;;;14.39;88.50;96357.84;2049023;29;20520;-44
2022/07/31 00:44:57;;;;;;;7.70;6.90;;;;;;;14.36;88.72;96352.81;2056953;28;20066;-45
2022/07/31 00:45:58;;;;;;;8.38;7.18;;;;;;;14.33;88.93;96351.22;2057604;28;20050;-44
2022/07/31 00:46:59;;;;;;;8.50;7.38;;;;;;;14.33;88.85;96361.66;2049486;28;20062;-45
2022/07/31 00:48:02;;;;;;;9.82;7.45;;;;;;;14.30;88.51;96354.84;2041855;29;20056;-45
2022/07/31 00:49:04;;;;;;;10.65;7.65;;;;;;;14.29;88.89;96347.91;2041152;29;20469;-44
2022/07/31 00:50:05;;;;;;;8.93;8.00;;;;;;;14.26;89.47;96350.69;2047936;29;20047;-44
2022/07/31 00:51:06;;;;;;;8.32;7.22;;;;;;;14.23;89.53;96353.47;2048437;29;20055;-46
2022/07/31 00:52:08;;;;;;;8.20;7.38;;;;;;;14.22;89.64;96353.56;2041792;29;20098;-44
2022/07/31 00:53:10;;;;;;;10.35;7.65;;;;;;;14.20;89.61;96351.03;2049715;28;20062;-43
2022/07/31 00:54:11;;;;;;;8.95;7.38;;;;;;;14.18;89.87;96349.44;2048434;28;20051;-46
2022/07/31 00:55:12;;;;;;;8.18;7.38;;;;;;;14.17;89.78;96358.22;2048577;29;20051;-43
2022/07/31 00:56:13;;;;;;;8.95;7.55;;;;;;;14.15;90.00;96354.84;2040599;29;20052;-45
2022/07/31 00:57:15;;;;;;;9.38;7.68;;;;;;;14.14;90.21;96361.84;2048636;28;20058;-44
2022/07/31 00:58:16;;;;;;;8.75;7.28;;;;;;;14.12;90.50;96361.09;2057217;28;20051;-44
2022/07/31 00:59:17;;;;;;;9.55;7.53;;;;;;;14.09;90.61;96353.41;2048737;29;20529;-46
2022/07/31 01:00:18;;;;;;;8.18;7.18;;;;;;;14.08;90.77;96357.78;2041538;29;20051;-44
2022/07/31 01:01:21;;;;;;;10.70;7.45;;;;;;;14.07;90.86;96358.72;2048949;28;20054;-44
2022/07/31 01:02:22;;;;;;;8.82;7.85;;;;;;;14.04;91.27;96356.28;2048459;29;20397;-45
2022/07/31 01:03:24;;;;;;;8.43;7.63;;;;;;;14.05;91.47;96359.72;2048762;28;20054;-45
2022/07/31 01:04:25;;;;;;;10.20;7.93;;;;;;;14.04;91.72;96358.88;2048716;29;20425;-43
2022/07/31 01:05:26;;;;;;;8.65;7.75;;;;;;;14.02;91.90;96352.91;2041635;29;20536;-44
2022/07/31 01:06:27;;;;;;;9.68;7.80;;;;;;;14.03;91.88;96351.13;2040950;29;20521;-45
2022/07/31 01:07:29;;;;;;;9.02;8.13;;;;;;;14.03;91.73;96357.22;2049216;28;20461;-44
2022/07/31 01:08:30;;;;;;;10.52;8.25;;;;;;;14.02;91.78;96360.75;2057588;28;20050;-45
2022/07/31 01:09:32;;;;;;;10.88;8.30;;;;;;;14.04;91.59;96355.44;2049136;29;20062;-46
2022/07/31 01:10:42;;;;;;;9.60;8.32;;;;;;;14.02;91.83;96359.91;2049264;28;20039;-46
2022/07/31 01:11:51;;;;;;;8.88;7.95;;;;;;;14.02;91.86;96354.69;2056785;28;20052;-44
2022/07/31 01:12:55;;;;;;;9.30;7.90;;;;;;;14.01;91.51;96350.41;2054296;28;20054;-44
2022/07/31 01:13:59;;;;;;;9.30;8.35;;;;;;;14.01;91.52;96355.63;2041527;29;20449;-44
2022/07/31 01:15:02;;;;;;;9.32;8.43;;;;;;;13.98;91.48;96347.94;2042285;28;20110;-44
2022/07/31 01:16:03;;;;;;;10.25;9.15;;;;;;;13.97;91.87;96348.88;2048832;29;20062;-44
2022/07/31 01:17:05;;;;;;;9.13;7.88;;;;;;;13.98;91.94;96350.53;2048847;29;20058;-45
2022/07/31 01:18:06;;;;;;;13.48;8.20;;;;;;;13.95;91.94;96353.31;2049522;28;20051;-45
2022/07/31 01:19:36;;;;;;;9.38;8.23;;;;;;;13.93;92.22;96360.41;2041777;29;20058;-47
2022/07/31 01:20:38;;;;;;;9.90;8.50;;;;;;;13.92;91.94;96356.09;2045214;29;20043;-41
2022/07/31 01:21:42;;;;;;;9.15;8.25;;;;;;;13.91;91.98;96357.88;2050141;29;20047;-45
2022/07/31 01:23:10;;;;;;;9.32;8.43;;;;;;;13.91;91.98;96357.88;2048473;29;20051;-44
2022/07/31 01:24:28;;;;;;;10.50;9.48;;;;;;;13.90;91.96;96356.22;2038005;29;20055;-46
2022/07/31 01:26:11;;;;;;;10.10;9.10;;;;;;;13.88;92.09;96363.28;2051071;28;20046;-45
2022/07/31 01:27:26;;;;;;;12.10;8.82;;;;;;;13.90;92.61;96358.81;2049032;29;20055;-45
2022/07/31 01:29:05;;;;;;;11.43;9.30;;;;;;;13.89;92.40;96357.94;2048733;29;20047;-44
2022/07/31 01:30:06;;;;;;;10.63;9.52;;;;;;;13.90;91.96;96361.44;2048887;29;20622;-44
2022/07/31 01:31:10;;;;;;;11.00;9.90;;;;;;;13.86;91.95;96350.28;2041732;28;20059;-43
2022/07/31 01:32:16;;;;;;;11.57;9.80;;;;;;;13.92;92.23;96362.16;2048493;28;20054;-46
2022/07/31 01:33:20;;;;;;;10.77;9.43;;;;;;;13.94;92.18;96362.94;2040788;29;20425;-43
2022/07/31 01:34:29;;;;;;;11.65;10.35;;;;;;;13.96;92.03;96357.63;2041125;29;20434;-44
2022/07/31 01:35:37;;;;;;;11.75;10.43;;;;;;;13.90;92.18;96351.81;2050250;28;20051;-45
2022/07/31 01:36:41;;;;;;;11.40;10.18;;;;;;;13.96;91.99;96355.03;2047576;29;20050;-46
2022/07/31 01:37:51;;;;;;;12.23;9.73;;;;;;;13.95;91.68;96351.53;2033194;29;20052;-46
2022/07/31 01:38:53;;;;;;;10.70;9.65;;;;;;;13.96;91.54;96355.88;2034167;29;20395;-44
2022/07/31 01:40:16;;;;;;;10.85;9.48;;;;;;;13.96;91.31;96355.88;2041203;28;20059;-44
2022/07/31 01:41:20;;;;;;;11.35;9.60;;;;;;;13.95;91.24;96354.16;2057145;28;20051;-44
2022/07/31 01:42:21;;;;;;;10.95;9.75;;;;;;;13.93;91.15;96357.81;2045031;29;20483;-46
2022/07/31 01:43:24;;;;;;;11.10;9.70;;;;;;;13.94;91.55;96354.25;2032763;29;20174;-46
2022/07/31 01:44:26;;;;;;;14.27;10.50;;;;;;;13.95;91.87;96354.16;2041754;29;20044;-45
2022/07/31 01:45:27;;;;;;;12.85;11.00;;;;;;;13.91;92.27;96352.66;2048854;29;20540;-46
2022/07/31 01:46:29;;;;;;;12.55;10.00;;;;;;;13.92;91.38;96350.88;2041271;29;20063;-45
2022/07/31 01:47:31;;;;;;;10.55;9.45;;;;;;;13.97;91.06;96348.88;2041533;28;20055;-45
2022/07/31 01:48:32;;;;;;;11.13;9.30;;;;;;;13.99;91.04;96365.28;2056300;28;20448;-45
2022/07/31 01:49:34;;;;;;;10.23;9.23;;;;;;;14.02;90.61;96346.84;2040287;29;20040;-47
2022/07/31 01:50:35;;;;;;;10.52;9.52;;;;;;;14.02;90.79;96350.28;2041354;29;20048;-45
2022/07/31 01:51:37;;;;;;;12.57;10.30;;;;;;;14.06;90.83;96348.34;2048513;29;20047;-46
2022/07/31 01:52:39;;;;;;;13.07;9.48;;;;;;;14.09;90.77;96345.59;2033203;29;20530;-44
2022/07/31 01:53:42;;;;;;;11.40;10.20;;;;;;;14.06;91.15;96348.34;2041371;29;20070;-44
2022/07/31 01:54:43;;;;;;;12.32;10.57;;;;;;;14.02;90.92;96345.06;2040823;29;20051;-43
2022/07/31 01:55:45;;;;;;;11.00;9.95;;;;;;;14.04;91.06;96343.22;2041057;29;20564;-46
2022/07/31 01:56:48;;;;;;;11.52;9.45;;;;;;;14.00;91.33;96339.09;2048845;28;20074;-48
2022/07/31 01:57:49;;;;;;;11.88;9.35;;;;;;;14.06;91.29;96348.34;2040236;29;20052;-46
2022/07/31 01:58:50;;;;;;;11.75;10.18;;;;;;;14.05;91.59;96341.44;2033602;29;20557;-46
2022/07/31 02:00:04;;;;;;;11.25;10.00;;;;;;;14.04;91.07;96345.00;2042212;29;20055;-45
2022/07/31 02:01:15;;;;;;;11.60;9.75;;;;;;;14.04;91.01;96345.84;2048473;28;20050;-46
2022/07/31 02:02:16;;;;;;;10.80;9.77;;;;;;;14.05;91.35;96355.34;2040720;29;20067;-47
2022/07/31 02:03:17;;;;;;;10.65;9.55;;;;;;;14.09;91.57;96350.81;2040875;29;20062;-46
2022/07/31 02:04:18;;;;;;;11.70;10.15;;;;;;;14.08;91.84;96349.09;2055852;28;20445;-47
2022/07/31 02:05:20;;;;;;;11.10;9.13;;;;;;;14.08;91.46;96355.16;2056729;28;20059;-44
2022/07/31 02:06:22;;;;;;;10.90;9.80;;;;;;;14.11;91.45;96354.16;2040304;29;20090;-44
2022/07/31 02:07:24;;;;;;;10.65;9.38;;;;;;;14.09;91.02;96354.25;2032610;29;20048;-45
2022/07/31 02:08:25;;;;;;;10.93;9.77;;;;;;;14.10;91.05;96353.31;2040539;29;20056;-45
2022/07/31 02:09:27;;;;;;;11.20;9.93;;;;;;;14.10;91.06;96361.16;2041652;29;20051;-46
2022/07/31 02:10:29;;;;;;;10.02;8.93;;;;;;;14.10;90.85;96357.72;2048724;28;20406;-46
2022/07/31 02:11:31;;;;;;;10.80;9.73;;;;;;;14.11;91.18;96354.16;2048468;29;20081;-46
2022/07/31 02:12:32;;;;;;;11.57;9.15;;;;;;;14.13;91.20;96357.53;2032995;29;20522;-45
2022/07/31 02:13:33;;;;;;;13.63;9.90;;;;;;;14.12;90.79;96354.09;2048128;29;20050;-45
2022/07/31 02:14:39;;;;;;;10.32;8.77;;;;;;;14.08;89.80;96344.72;2040558;29;20055;-46
2022/07/31 02:15:41;;;;;;;10.02;8.50;;;;;;;14.12;89.97;96354.09;2034213;29;20044;-46
2022/07/31 02:16:43;;;;;;;8.50;7.57;;;;;;;14.13;89.76;96352.31;2040467;29;20061;-48
2022/07/31 02:17:51;;;;;;;9.63;8.63;;;;;;;14.10;90.37;96349.88;2042372;28;20510;-44
2022/07/31 02:19:08;;;;;;;9.80;8.80;;;;;;;14.05;90.49;96362.34;2048272;29;20047;-45
2022/07/31 02:20:10;;;;;;;9.48;8.45;;;;;;;14.04;90.94;96355.44;2042891;29;20055;-47
2022/07/31 02:21:11;;;;;;;9.50;8.48;;;;;;;14.01;90.41;96347.78;2048842;28;20051;-46
2022/07/31 02:22:12;;;;;;;9.30;8.40;;;;;;;14.01;90.74;96351.22;2047364;29;20051;-45
2022/07/31 02:23:14;;;;;;;9.07;7.97;;;;;;;13.99;90.20;96347.03;2040254;29;20051;-46
2022/07/31 02:24:16;;;;;;;8.32;7.30;;;;;;;13.98;89.91;96356.63;2027989;29;20053;-46
2022/07/31 02:25:17;;;;;;;9.13;7.72;;;;;;;13.99;89.96;96360.06;2026043;29;20059;-46
2022/07/31 02:26:19;;;;;;;9.63;6.97;;;;;;;13.96;90.34;96357.63;2040780;29;20525;-46
2022/07/31 02:27:20;;;;;;;10.35;8.82;;;;;;;13.92;90.86;96353.50;2032976;29;20044;-45
2022/07/31 02:28:21;;;;;;;8.30;7.50;;;;;;;13.88;90.17;96355.44;2041692;28;20055;-46
2022/07/31 02:29:23;;;;;;;9.45;7.57;;;;;;;13.89;89.91;96360.56;2048210;29;20054;-45
2022/07/31 02:30:25;;;;;;;10.43;8.27;;;;;;;13.86;90.39;96360.72;2040688;28;20048;-46
2022/07/31 02:31:27;;;;;;;9.75;8.75;;;;;;;13.82;nan;96364.44;2040201;29;20074;-47
2022/07/31 02:32:29;;;;;;;10.52;8.52;;;;;;;13.83;90.51;96358.28;2041199;28;20438;-45
2022/07/31 02:33:30;;;;;;;10.77;8.10;;;;;;;13.83;90.41;96360.91;2040448;29;20445;-45
2022/07/31 02:34:31;;;;;;;9.25;7.70;;;;;;;13.82;90.13;96371.41;2041318;28;20129;-45
2022/07/31 02:35:33;;;;;;;8.43;7.53;;;;;;;13.80;90.04;96358.47;2048342;28;20525;-44
2022/07/31 02:36:34;;;;;;;9.48;8.50;;;;;;;13.78;90.24;96352.47;2047710;29;20043;-45
2022/07/31 02:37:36;;;;;;;9.93;7.47;;;;;;;13.80;90.04;96365.47;2048493;28;20476;-45
2022/07/31 02:38:37;;;;;;;9.98;8.25;;;;;;;13.78;89.98;96367.31;2032793;29;20540;-44
2022/07/31 02:39:38;;;;;;;9.55;8.05;;;;;;;13.76;90.23;96362.16;2040685;28;20437;-44
2022/07/31 02:40:39;;;;;;;9.38;8.38;;;;;;;13.80;90.06;96361.06;2032983;29;20446;-47
2022/07/31 02:41:41;;;;;;;10.52;7.82;;;;;;;13.81;90.04;96364.53;2040404;28;20054;-45
2022/07/31 02:42:42;;;;;;;9.10;8.20;;;;;;;13.80;89.83;96365.47;2049549;28;20508;-46
2022/07/31 02:43:43;;;;;;;8.65;7.75;;;;;;;13.75;89.99;96344.81;2048349;28;20512;-45
2022/07/31 02:44:51;;;;;;;8.63;7.72;;;;;;;13.85;89.63;96360.84;2039966;29;20043;-44
2022/07/31 02:45:53;;;;;;;10.60;7.45;;;;;;;13.86;89.30;96352.06;2041645;29;20058;-45
2022/07/31 02:46:56;;;;;;;8.82;7.28;;;;;;;13.81;89.11;96352.31;2055788;28;20046;-46
2022/07/31 02:47:58;;;;;;;10.23;7.50;;;;;;;13.86;89.27;96352.91;2048311;29;20057;-44
2022/07/31 02:49:00;;;;;;;8.20;7.40;;;;;;;13.86;90.04;96355.50;2033097;29;20088;-45
2022/07/31 02:50:02;;;;;;;7.97;7.18;;;;;;;13.86;89.75;96354.69;2040407;28;20066;-46
2022/07/31 02:51:03;;;;;;;8.32;7.53;;;;;;;13.85;89.66;96347.78;2041310;28;20420;-44
2022/07/31 02:52:05;;;;;;;9.30;7.65;;;;;;;13.83;89.56;96349.63;2039943;29;20066;-45
2022/07/31 02:53:06;;;;;;;11.23;7.40;;;;;;;13.85;89.18;96347.78;2032469;29;20425;-44
2022/07/31 02:54:07;;;;;;;11.95;7.50;;;;;;;13.86;89.04;96349.47;2039702;28;20063;-45
2022/07/31 02:55:09;;;;;;;9.25;8.35;;;;;;;13.85;88.79;96353.00;2040409;29;20062;-47
2022/07/31 02:56:10;;;;;;;10.77;8.57;;;;;;;13.85;89.89;96353.84;2032800;29;20733;-45
2022/07/31 02:57:14;;;;;;;11.00;8.27;;;;;;;13.87;89.14;96351.13;2055726;28;20564;-46
2022/07/31 02:58:15;;;;;;;9.85;8.07;;;;;;;13.87;89.09;96351.13;2040133;29;20059;-45
2022/07/31 02:59:20;;;;;;;7.85;7.05;;;;;;;13.87;89.18;96353.75;2040668;29;20051;-47
2022/07/31 03:00:37;;;;;;;9.65;7.65;;;;;;;13.88;89.11;96350.22;2041654;28;20091;-45
2022/07/31 03:01:38;;;;;;;8.68;7.70;;;;;;;13.91;89.32;96355.28;2040538;29;20054;-43
2022/07/31 03:02:41;;;;;;;9.60;8.48;;;;;;;13.92;89.13;96349.09;2040348;29;20556;-45
2022/07/31 03:03:42;;;;;;;9.88;7.85;;;;;;;13.92;89.00;96353.50;2047973;29;20055;-45
2022/07/31 03:04:45;;;;;;;9.10;8.20;;;;;;;13.97;88.86;96346.25;2040464;29;20063;-47
2022/07/31 03:05:46;;;;;;;9.60;8.32;;;;;;;13.95;89.25;96354.16;2040587;29;20047;-45
2022/07/31 03:06:47;;;;;;;9.23;7.70;;;;;;;13.98;88.27;96353.16;2040508;29;20055;-46
2022/07/31 03:07:49;;;;;;;8.57;7.55;;;;;;;14.04;88.67;96355.44;2040462;29;20052;-48
2022/07/31 03:08:50;;;;;;;9.70;7.68;;;;;;;14.08;88.07;96354.34;2048171;28;20059;-44
2022/07/31 03:09:56;;;;;;;8.98;7.30;;;;;;;14.14;88.06;96356.63;2051703;28;20417;-45
2022/07/31 03:11:12;;;;;;;7.25;6.47;;;;;;;14.23;87.53;96348.25;2050153;28;20051;-45
2022/07/31 03:12:15;;;;;;;11.63;7.10;;;;;;;14.24;87.30;96347.31;2048509;29;20242;-44
2022/07/31 03:13:16;;;;;;;8.25;6.63;;;;;;;14.23;87.06;96345.66;2048626;28;20505;-45
2022/07/31 03:14:17;;;;;;;8.13;7.30;;;;;;;14.26;87.72;96353.31;2040121;29;20059;-45
2022/07/31 03:15:21;;;;;;;9.80;7.65;;;;;;;14.29;87.70;96353.13;2032768;29;20060;-46
2022/07/31 03:16:22;;;;;;;9.57;7.03;;;;;;;14.36;86.98;96352.81;2040953;29;20047;-46
2022/07/31 03:17:23;;;;;;;10.77;6.47;;;;;;;14.37;86.52;96352.69;2040072;29;20094;-47
2022/07/31 03:18:28;;;;;;;8.90;6.72;;;;;;;14.31;86.58;96355.66;2033206;29;20418;-45
2022/07/31 03:19:29;;;;;;;8.38;7.10;;;;;;;14.30;86.95;96352.22;2040545;29;20050;-45
2022/07/31 03:20:31;;;;;;;9.13;6.60;;;;;;;14.36;86.51;96350.19;2032908;29;20051;-45
2022/07/31 03:21:32;;;;;;;8.18;7.05;;;;;;;14.41;86.79;96349.00;2040348;29;20118;-45
2022/07/31 03:22:33;;;;;;;7.57;6.43;;;;;;;14.44;86.08;96350.59;2040711;29;20048;-47
2022/07/31 03:23:35;;;;;;;9.23;6.57;;;;;;;14.45;86.75;96347.88;2055284;28;20404;-46
2022/07/31 03:24:41;;;;;;;9.52;7.20;;;;;;;14.46;86.12;96349.59;2047441;29;20051;-45
2022/07/31 03:25:43;;;;;;;7.43;6.65;;;;;;;14.47;85.54;96350.41;2033162;29;20470;-45
2022/07/31 03:26:45;;;;;;;7.00;6.30;;;;;;;14.50;86.00;96350.25;2033148;29;20048;-46
2022/07/31 03:27:47;;;;;;;7.88;6.57;;;;;;;14.53;86.17;96350.94;2040329;29;20062;-48
2022/07/31 03:28:48;;;;;;;8.20;7.07;;;;;;;14.54;85.85;96349.16;2048056;28;20050;-49
2022/07/31 03:29:49;;;;;;;8.07;6.75;;;;;;;14.52;85.93;96349.25;2048055;29;20159;-44
2022/07/31 03:30:50;;;;;;;7.70;6.72;;;;;;;14.54;86.37;96350.03;2039877;29;20044;-47
2022/07/31 03:31:52;;;;;;;11.40;6.90;;;;;;;14.56;85.70;96352.53;2032471;29;20063;-47
2022/07/31 03:32:54;;;;;;;10.00;7.30;;;;;;;14.58;86.12;96352.44;2032743;29;20052;-45
2022/07/31 03:33:55;;;;;;;7.80;6.53;;;;;;;14.58;85.54;96353.28;2047824;28;20055;-45
2022/07/31 03:34:57;;;;;;;7.85;7.05;;;;;;;14.59;85.72;96352.34;2040239;29;20051;-45
2022/07/31 03:35:59;;;;;;;7.78;6.50;;;;;;;14.60;85.04;96355.81;2032852;29;20063;-45
2022/07/31 03:37:00;;;;;;;11.40;7.07;;;;;;;14.54;85.57;96351.75;2040754;29;20052;-47
2022/07/31 03:38:01;;;;;;;7.35;6.65;;;;;;;14.56;85.26;96355.13;2047671;29;20051;-45
2022/07/31 03:39:04;;;;;;;10.05;7.15;;;;;;;14.58;85.15;96355.91;2048601;28;20051;-45
2022/07/31 03:40:12;;;;;;;10.90;7.15;;;;;;;14.57;85.78;96359.47;2055827;28;20047;-45
2022/07/31 03:41:13;;;;;;;10.55;7.28;;;;;;;14.55;85.54;96354.31;2056073;28;20053;-46
2022/07/31 03:42:14;;;;;;;8.18;7.22;;;;;;;14.53;86.09;96355.31;2053272;28;20117;-47
2022/07/31 03:43:16;;;;;;;7.95;6.80;;;;;;;14.50;85.70;96355.47;2039139;29;20052;-45
2022/07/31 03:44:18;;;;;;;9.57;7.32;;;;;;;14.48;85.80;96346.88;2040157;29;20055;-46
2022/07/31 03:45:20;;;;;;;7.72;6.82;;;;;;;14.53;85.39;96350.94;2040585;29;20055;-46
2022/07/31 03:46:21;;;;;;;7.45;6.68;;;;;;;14.53;85.92;96350.09;2047793;28;20513;-46
2022/07/31 03:47:23;;;;;;;7.82;7.03;;;;;;;14.54;85.81;96354.38;2040701;29;20055;-46
2022/07/31 03:48:26;;;;;;;7.15;6.45;;;;;;;14.51;86.38;96344.94;2033242;29;20044;-46
2022/07/31 03:49:27;;;;;;;9.05;6.70;;;;;;;14.63;85.64;96343.41;2042522;29;20048;-46
2022/07/31 03:50:28;;;;;;;8.20;6.63;;;;;;;14.70;85.49;96351.72;2040720;28;20055;-45
2022/07/31 03:51:30;;;;;;;9.57;7.15;;;;;;;14.67;85.73;96346.69;2056086;28;20054;-45
2022/07/31 03:52:33;;;;;;;8.63;7.18;;;;;;;14.62;85.96;96349.59;2047853;29;20410;-45
2022/07/31 03:53:35;;;;;;;8.63;6.15;;;;;;;14.64;85.19;96347.69;2041212;28;20055;-45
2022/07/31 03:54:36;;;;;;;9.77;6.78;;;;;;;14.71;84.66;96343.81;2032131;29;20656;-46
2022/07/31 03:55:48;;;;;;;8.27;6.63;;;;;;;14.64;85.06;96346.88;2041759;29;20410;-46
2022/07/31 03:56:50;;;;;;;9.27;6.55;;;;;;;14.64;84.64;96347.69;2031715;29;20457;-47
2022/07/31 03:57:52;;;;;;;9.93;7.43;;;;;;;14.63;85.21;96342.56;2040932;28;20052;-46
2022/07/31 03:58:53;;;;;;;8.23;6.80;;;;;;;14.60;85.33;96340.16;2032371;29;20048;-45
2022/07/31 03:59:56;;;;;;;7.90;7.07;;;;;;;14.65;84.88;96344.19;2032505;29;20052;-45
2022/07/31 04:00:58;;;;;;;8.52;6.65;;;;;;;14.61;84.26;96345.25;2047402;29;20055;-46
2022/07/31 04:01:59;;;;;;;8.90;7.47;;;;;;;14.62;84.79;96343.50;2047984;28;20128;-45
2022/07/31 04:03:10;;;;;;;10.95;7.40;;;;;;;14.53;85.17;96342.25;2048007;29;20047;-46
2022/07/31 04:04:26;;;;;;;10.45;6.53;;;;;;;14.61;85.32;96347.03;2033930;29;20040;-45
2022/07/31 04:05:32;;;;;;;9.52;6.60;;;;;;;14.52;85.14;96343.16;2045762;28;20070;-47
2022/07/31 04:06:34;;;;;;;9.73;6.88;;;;;;;14.59;85.55;96341.06;2032735;29;20454;-46
2022/07/31 04:07:35;;;;;;;8.95;7.10;;;;;;;14.59;84.47;96347.13;2032996;28;20055;-48
2022/07/31 04:08:37;;;;;;;13.05;7.00;;;;;;;14.58;85.34;96345.44;2040092;29;20052;-44
2022/07/31 04:09:38;;;;;;;7.72;6.50;;;;;;;14.60;85.33;96348.81;2032380;29;20159;-47
2022/07/31 04:10:40;;;;;;;7.80;6.55;;;;;;;14.65;84.50;96346.78;2040117;29;20048;-47
2022/07/31 04:11:43;;;;;;;10.90;6.78;;;;;;;14.64;85.17;96352.94;2047485;28;20051;-44
2022/07/31 04:12:44;;;;;;;9.38;6.07;;;;;;;14.62;84.33;96352.19;2047625;29;20525;-45
2022/07/31 04:13:46;;;;;;;8.80;6.55;;;;;;;14.61;84.61;96350.50;2032886;29;20494;-45
2022/07/31 04:14:48;;;;;;;7.18;6.40;;;;;;;14.59;85.24;96349.72;2040351;29;20524;-48
2022/07/31 04:15:49;;;;;;;8.90;6.43;;;;;;;14.58;85.23;96350.66;2055870;28;20046;-46
2022/07/31 04:16:50;;;;;;;8.98;6.70;;;;;;;14.61;84.35;96352.28;2048649;28;20445;-46
2022/07/31 04:17:52;;;;;;;6.53;5.80;;;;;;;14.64;84.49;96350.31;2048049;28;20413;-44
2022/07/31 04:18:58;;;;;;;8.68;6.38;;;;;;;14.68;85.37;96351.84;2048576;28;20512;-47
2022/07/31 04:19:59;;;;;;;9.63;5.93;;;;;;;14.73;84.69;96347.19;2040047;29;20055;-46
2022/07/31 04:21:00;;;;;;;8.25;5.82;;;;;;;14.78;84.78;96345.16;2048125;29;20054;-47
2022/07/31 04:22:02;;;;;;;8.95;5.85;;;;;;;14.73;84.56;96349.78;2055386;28;20057;-46
2022/07/31 04:23:04;;;;;;;10.63;6.07;;;;;;;14.81;83.70;96351.09;2055145;28;20097;-47
2022/07/31 04:24:25;;;;;;;7.25;6.40;;;;;;;14.74;84.08;96348.84;2047685;29;20043;-47
2022/07/31 04:25:33;;;;;;;10.73;5.70;;;;;;;14.70;84.32;96352.59;2043383;29;20043;-46
2022/07/31 04:26:54;;;;;;;7.78;5.88;;;;;;;14.71;84.36;96348.19;2043363;29;20047;-45
2022/07/31 04:27:56;;;;;;;6.25;5.35;;;;;;;14.72;84.79;96348.09;2035659;29;20593;-45
2022/07/31 04:28:57;;;;;;;7.43;5.50;;;;;;;14.75;85.14;96358.41;2040459;28;20056;-46
2022/07/31 04:29:58;;;;;;;6.53;5.10;;;;;;;14.70;83.98;96349.97;2048679;29;20525;-45
2022/07/31 04:30:59;;;;;;;10.20;6.03;;;;;;;14.74;84.17;96356.69;2049406;29;20410;-47
2022/07/31 04:32:01;;;;;;;6.10;5.50;;;;;;;14.74;84.00;96354.09;2049219;29;20066;-48
2022/07/31 04:33:08;;;;;;;8.88;5.47;;;;;;;14.76;83.51;96359.25;2050288;28;20061;-44
2022/07/31 04:34:09;;;;;;;7.03;5.88;;;;;;;14.75;84.14;96357.53;2049134;29;20047;-48
2022/07/31 04:35:12;;;;;;;6.60;5.90;;;;;;;14.74;84.27;96359.31;2057376;28;20074;-45
2022/07/31 04:36:13;;;;;;;7.53;5.90;;;;;;;14.78;84.39;96358.22;2049025;29;20432;-46
2022/07/31 04:37:15;;;;;;;8.07;5.65;;;;;;;14.82;83.08;96358.03;2048935;28;20077;-45
2022/07/31 04:38:16;;;;;;;6.40;5.75;;;;;;;14.75;84.02;96358.41;2041539;29;20481;-45
2022/07/31 04:39:18;;;;;;;7.10;4.95;;;;;;;14.78;84.37;96360.84;2042071;29;20513;-46
2022/07/31 04:40:20;;;;;;;8.55;5.65;;;;;;;14.74;83.62;96361.09;2041470;29;20056;-48
2022/07/31 04:41:22;;;;;;;6.07;5.15;;;;;;;14.75;83.73;96353.16;2041682;28;20048;-46
2022/07/31 04:42:23;;;;;;;8.18;5.95;;;;;;;14.75;84.24;96349.69;2045723;29;20065;-48
2022/07/31 04:43:24;;;;;;;5.68;5.00;;;;;;;14.81;83.91;96353.72;2041514;29;20043;-46
2022/07/31 04:44:26;;;;;;;6.60;5.57;;;;;;;14.86;83.45;96355.16;2034178;29;20044;-47
2022/07/31 04:45:29;;;;;;;6.32;5.07;;;;;;;14.82;83.99;96360.66;2027799;29;20052;-47
2022/07/31 04:46:31;;;;;;;5.88;4.78;;;;;;;14.76;84.24;96362.69;2034097;29;20433;-46
2022/07/31 04:47:32;;;;;;;8.20;5.22;;;;;;;14.77;84.17;96355.69;2034452;29;20054;-45
2022/07/31 04:48:34;;;;;;;7.80;5.57;;;;;;;14.90;83.11;96356.66;2033492;29;20144;-49
2022/07/31 04:49:35;;;;;;;6.72;5.53;;;;;;;14.91;83.01;96358.31;2041812;28;20051;-48
2022/07/31 04:50:51;;;;;;;6.85;5.18;;;;;;;14.80;83.25;96349.44;2057938;28;20047;-48
2022/07/31 04:51:52;;;;;;;6.80;4.88;;;;;;;14.99;82.98;96363.09;2046673;28;20042;-41
2022/07/31 04:52:54;;;;;;;8.00;5.43;;;;;;;15.01;83.24;96363.84;2072324;28;20052;-40
2022/07/31 04:53:56;;;;;;;6.50;5.10;;;;;;;14.99;82.64;96358.75;2065254;28;20060;-40
2022/07/31 04:55:00;;;;;;;9.20;5.07;;;;;;;15.07;82.16;96360.88;2064615;28;20042;-40
2022/07/31 04:58:24;;;;;;;6.10;4.95;;;;;;;15.23;81.69;96360.81;2064992;28;20046;-40
2022/07/31 04:59:25;;;;;;;9.93;5.45;;;;;;;15.29;82.90;96359.59;2049524;28;20043;-40